Time;durP1;ratioP1;P1;durP2;ratioP2;P2;SDS_P1;SDS_P2;PMS_P1;PMS_P2;Temp;Humidity;BMP_temperature;BMP_pressure;BME280_temperature;BME280_humidity;BME280_pressure;Samples;Min_cycle;Max_cycle;Signal;HPM_P1;HPM_P2
2022/05/26 00:02:18;;;;;;;4.75;3.90;;;;;;;7.69;72.87;99065.56;6219664;23;20038;-80
2022/05/26 00:04:44;;;;;;;4.13;3.67;;;;;;;7.63;72.94;99058.00;6244740;23;20347;-79
2022/05/26 00:07:10;;;;;;;5.72;4.30;;;;;;;7.57;72.22;99044.34;6244761;23;20027;-80
2022/05/26 00:09:36;;;;;;;4.53;3.83;;;;;;;7.52;73.58;99053.50;6244336;23;20074;-80
2022/05/26 00:12:03;;;;;;;4.80;4.00;;;;;;;7.57;73.20;99062.94;6219650;23;20028;-80
2022/05/26 00:14:30;;;;;;;5.68;4.20;;;;;;;7.51;73.27;99067.72;6219569;23;20100;-80
2022/05/26 00:16:56;;;;;;;6.30;4.00;;;;;;;7.53;73.46;99070.31;6244771;23;20020;-81
2022/05/26 00:19:22;;;;;;;6.78;4.40;;;;;;;7.53;73.14;99060.50;6194583;23;20023;-81
2022/05/26 00:21:49;;;;;;;5.55;3.95;;;;;;;7.55;73.31;99069.22;6219281;23;20039;-80
2022/05/26 00:24:20;;;;;;;7.00;4.10;;;;;;;7.44;73.18;99055.84;6219513;23;20070;-81
2022/05/26 00:26:46;;;;;;;4.53;4.03;;;;;;;7.52;73.42;99069.44;6218957;23;20024;-81
2022/05/26 00:29:13;;;;;;;5.45;4.68;;;;;;;7.57;73.22;99081.56;6219228;23;20070;-82
2022/05/26 00:31:40;;;;;;;5.43;3.97;;;;;;;7.53;73.63;99076.47;6218839;23;20348;-80
2022/05/26 00:34:06;;;;;;;4.78;4.10;;;;;;;7.54;73.20;99069.31;6219260;23;20023;-81
2022/05/26 00:36:37;;;;;;;6.32;4.78;;;;;;;7.59;73.43;99099.09;6219104;23;20034;-81
2022/05/26 00:39:06;;;;;;;10.50;4.30;;;;;;;7.47;73.53;99082.22;6219939;23;20102;-81
2022/05/26 00:41:32;;;;;;;5.82;4.25;;;;;;;7.59;73.02;99098.25;6245804;23;20024;-80
2022/05/26 00:43:58;;;;;;;4.60;3.58;;;;;;;7.60;73.29;99107.91;6194089;23;20016;-80
2022/05/26 00:46:37;;;;;;;4.30;3.90;;;;;;;7.51;73.21;99099.66;6219063;23;20016;-80
2022/05/26 00:49:04;;;;;;;5.95;3.83;;;;;;;7.55;73.15;99095.81;6244194;23;20023;-80
2022/05/26 00:51:34;;;;;;;6.13;4.18;;;;;;;7.57;72.95;99102.84;6244573;23;20086;-80
2022/05/26 00:54:07;;;;;;;9.13;4.13;;;;;;;7.60;73.17;99115.91;6219483;23;20027;-80
2022/05/26 00:56:45;;;;;;;4.20;3.80;;;;;;;7.63;72.55;99119.19;6219143;23;20343;-80
2022/05/26 00:59:16;;;;;;;5.18;3.90;;;;;;;7.60;72.99;99118.56;6194158;23;20035;-80
2022/05/26 01:01:42;;;;;;;8.48;4.00;;;;;;;7.63;72.70;99123.66;6244497;23;20024;-81
2022/05/26 01:04:13;;;;;;;7.95;3.92;;;;;;;7.49;73.18;99130.00;6218774;23;20020;-81
2022/05/26 01:06:46;;;;;;;5.35;3.60;;;;;;;7.43;73.54;99133.91;6220037;23;20020;-83
2022/05/26 01:09:12;;;;;;;4.78;3.88;;;;;;;7.42;73.00;99128.72;6245444;22;20452;-82
2022/05/26 01:11:40;;;;;;;3.85;3.55;;;;;;;7.33;73.63;99122.22;6219204;23;20103;-81
2022/05/26 01:14:14;;;;;;;4.22;3.63;;;;;;;7.36;73.46;99127.31;6219003;23;20383;-80
2022/05/26 01:17:05;;;;;;;4.95;3.90;;;;;;;7.42;73.55;99137.53;6219539;23;20357;-80
2022/05/26 01:19:40;;;;;;;4.95;3.13;;;;;;;7.45;73.31;99140.00;6194163;23;20024;-80
2022/05/26 01:23:02;;;;;;;4.30;3.50;;;;;;;7.45;73.03;99137.34;6194329;23;20505;-79
2022/05/26 01:25:56;;;;;;;7.75;4.03;;;;;;;7.41;73.34;99141.16;6123536;23;20021;-80
2022/05/26 01:28:59;;;;;;;9.32;3.65;;;;;;;7.45;73.18;99142.66;6100913;23;20022;-81
2022/05/26 01:31:39;;;;;;;4.20;3.80;;;;;;;7.47;72.75;99129.22;6235635;23;20344;-82
2022/05/26 01:34:34;;;;;;;6.35;4.20;;;;;;;7.72;72.46;99147.81;6219863;23;20020;-81
2022/05/26 01:37:12;;;;;;;5.35;3.70;;;;;;;7.60;72.51;99140.72;6245121;23;20027;-81
2022/05/26 01:40:12;;;;;;;5.28;3.70;;;;;;;7.69;72.33;99160.50;6194703;23;20091;-80
2022/05/26 01:43:02;;;;;;;5.20;4.13;;;;;;;7.74;72.03;99147.69;6247105;23;20024;-83
2022/05/26 01:45:51;;;;;;;4.93;3.95;;;;;;;7.94;71.70;99149.78;6250710;23;20016;-80
2022/05/26 01:48:20;;;;;;;6.28;3.85;;;;;;;8.21;71.12;99173.56;6207082;23;20463;-82
2022/05/26 01:50:52;;;;;;;5.15;3.75;;;;;;;8.18;71.04;99160.47;6222784;23;20039;-81
2022/05/26 01:53:47;;;;;;;4.88;3.47;;;;;;;8.23;70.40;99162.78;6257224;23;20020;-83
2022/05/26 01:56:27;;;;;;;4.90;3.75;;;;;;;8.21;70.74;99157.56;6226207;23;20020;-84
2022/05/26 01:59:03;;;;;;;4.88;3.80;;;;;;;8.25;70.41;99174.19;6200124;23;20047;-87
2022/05/26 02:01:37;;;;;;;8.18;3.75;;;;;;;8.35;70.33;99177.88;6200651;23;20020;-85
2022/05/26 02:04:30;;;;;;;4.70;3.63;;;;;;;8.50;70.12;99176.78;6227101;23;20020;-86
2022/05/26 02:07:18;;;;;;;7.32;3.75;;;;;;;8.56;69.80;99178.13;6237504;23;20020;-85
2022/05/26 02:09:44;;;;;;;5.60;4.13;;;;;;;8.74;69.78;99181.25;6224992;23;20023;-85
2022/05/26 02:12:29;;;;;;;3.50;3.20;;;;;;;8.69;69.19;99162.09;6255452;23;20078;-88
2022/05/26 02:15:32;;;;;;;4.40;3.03;;;;;;;8.79;69.55;99180.88;6201876;23;20024;-81
2022/05/26 02:18:15;;;;;;;5.45;3.45;;;;;;;9.20;71.75;99177.72;6155164;23;20020;-87
2022/05/26 02:20:47;;;;;;;3.30;3.00;;;;;;;9.27;68.34;99189.63;6253661;23;20023;-89
2022/05/26 02:23:31;;;;;;;10.38;3.25;;;;;;;9.12;67.35;99180.16;6230271;23;20048;-88
2022/05/26 02:26:00;;;;;;;6.45;3.42;;;;;;;9.06;67.14;99184.13;6201674;23;20081;-82
2022/05/26 02:29:51;;;;;;;7.28;2.78;;;;;;;9.06;67.39;99185.94;6197939;23;20031;-87
2022/05/26 02:31:22;;;;;;;8.25;3.25;;;;;;;9.15;67.02;99187.91;6233071;23;20012;-84
2022/05/26 02:33:47;;;;;;;5.57;2.80;;;;;;;9.28;67.26;99190.47;6256598;23;20444;-79
2022/05/26 02:36:15;;;;;;;9.48;3.00;;;;;;;9.60;68.72;99198.66;6247634;23;20028;-78
2022/05/26 02:38:41;;;;;;;9.35;2.75;;;;;;;9.68;66.69;99182.88;6225909;23;20024;-86
2022/05/26 02:41:07;;;;;;;3.13;2.80;;;;;;;9.70;65.60;99196.94;6254685;23;20075;-88
2022/05/26 02:43:34;;;;;;;2.83;2.50;;;;;;;9.52;64.43;99209.09;6202654;23;20016;-87
2022/05/26 02:46:06;;;;;;;3.55;2.88;;;;;;;9.35;65.26;99203.22;6263836;23;20038;-85
2022/05/26 02:49:00;;;;;;;3.65;3.25;;;;;;;9.26;66.02;99195.94;6264601;22;20000;-83
2022/05/26 02:51:46;;;;;;;4.50;3.03;;;;;;;9.32;66.04;99208.78;6218004;23;20023;-85
2022/05/26 02:54:31;;;;;;;5.25;2.72;;;;;;;9.24;65.95;99216.53;6271038;23;20096;-85
2022/05/26 02:57:27;;;;;;;6.15;3.20;;;;;;;9.29;65.64;99214.38;6242816;23;20020;-87
2022/05/26 03:00:49;;;;;;;3.00;2.58;;;;;;;9.32;65.79;99202.59;6243950;23;20069;-85
2022/05/26 03:03:55;;;;;;;4.82;2.65;;;;;;;9.07;65.89;99163.66;6184508;23;20028;-85
2022/05/26 03:06:54;;;;;;;9.23;2.65;;;;;;;9.44;65.28;99213.19;6229122;23;20073;-84
2022/05/26 03:09:21;;;;;;;7.95;2.70;;;;;;;9.66;65.03;99209.69;6233915;23;20027;-86
2022/05/26 03:11:53;;;;;;;3.65;2.60;;;;;;;9.89;64.67;99217.69;6238628;23;20039;-84
2022/05/26 03:14:20;;;;;;;3.33;2.40;;;;;;;10.03;64.27;99209.44;6209600;23;20042;-84
2022/05/26 03:16:47;;;;;;;4.90;2.60;;;;;;;10.24;63.75;99225.59;6256366;23;20027;-84
2022/05/26 03:19:14;;;;;;;2.60;2.40;;;;;;;10.40;63.14;99235.91;6259624;23;20076;-84
2022/05/26 03:21:40;;;;;;;7.93;2.83;;;;;;;10.52;62.70;99229.56;6229911;23;20020;-84
2022/05/26 03:24:07;;;;;;;5.40;2.47;;;;;;;10.63;62.15;99229.53;6250938;23;20356;-85
2022/05/26 03:26:33;;;;;;;3.42;2.70;;;;;;;10.72;61.51;99233.28;6254196;23;20359;-85
2022/05/26 03:28:59;;;;;;;4.30;2.58;;;;;;;10.67;61.35;99222.94;6254524;23;20044;-86
2022/05/26 03:31:25;;;;;;;5.53;2.60;;;;;;;10.60;61.03;99235.13;6227464;23;20016;-85
2022/05/26 03:42:06;;;;;;;2.08;1.88;;;;;;;10.72;58.91;99241.31;6222942;23;20012;-84
2022/05/26 03:44:34;;;;;;;3.25;2.40;;;;;;;10.81;60.15;99242.38;6249438;23;20023;-85
2022/05/26 03:47:01;;;;;;;2.55;2.10;;;;;;;10.90;59.26;99237.09;6226003;23;20125;-84
2022/05/26 03:49:27;;;;;;;4.72;2.40;;;;;;;11.09;58.71;99240.91;6227924;23;20012;-84
2022/05/26 03:51:53;;;;;;;2.20;1.90;;;;;;;11.04;58.46;99243.13;6224868;23;20020;-81
2022/05/26 03:54:19;;;;;;;3.03;2.40;;;;;;;11.13;58.99;99232.53;6256312;23;20448;-88
2022/05/26 03:56:45;;;;;;;4.95;2.67;;;;;;;11.18;59.00;99229.44;6207548;23;20012;-83
2022/05/26 03:59:11;;;;;;;3.88;2.10;;;;;;;11.22;58.86;99246.94;6234794;23;20023;-86
2022/05/26 04:01:37;;;;;;;6.43;2.30;;;;;;;11.45;58.74;99253.03;6250043;23;20102;-86
2022/05/26 04:04:03;;;;;;;6.47;2.20;;;;;;;11.60;58.73;99241.00;6196664;23;20444;-79
2022/05/26 04:06:29;;;;;;;1.75;1.65;;;;;;;11.81;57.58;99246.34;6197851;23;20042;-81
2022/05/26 04:08:55;;;;;;;11.77;2.10;;;;;;;11.52;55.31;99242.66;6252750;23;20055;-86
2022/05/26 04:11:23;;;;;;;2.65;2.00;;;;;;;11.31;55.50;99251.50;6226858;23;20095;-86
2022/05/26 04:13:53;;;;;;;2.85;1.80;;;;;;;11.28;55.86;99251.75;6253945;23;20020;-85
2022/05/26 04:16:19;;;;;;;;;;;;;;;11.43;56.02;99261.19;6201146;23;20044;-85
2022/05/26 04:18:45;;;;;;;;;;;;;;;11.41;54.79;99247.06;6252465;23;20282;-86
2022/05/26 04:21:11;;;;;;;;;;;;;;;11.43;53.79;99247.81;6250653;23;19923;-84
2022/05/26 04:23:38;;;;;;;;;;;;;;;11.46;51.94;99253.88;6251875;23;19934;-84
2022/05/26 04:26:04;;;;;;;;;;;;;;;11.47;52.82;99256.44;6174641;23;19915;-85
2022/05/26 04:28:30;;;;;;;;;;;;;;;11.74;53.49;99258.56;6223193;23;19963;-84
2022/05/26 04:30:56;;;;;;;;;;;;;;;11.89;51.04;99259.09;6198347;23;19916;-85
2022/05/26 04:33:22;;;;;;;;;;;;;;;12.05;50.45;99250.56;6251477;23;19915;-86
2022/05/26 04:35:48;;;;;;;;;;;;;;;12.24;49.68;99249.78;6248247;23;20405;-86
2022/05/26 04:38:14;;;;;;;;;;;;;;;12.39;48.02;99254.63;6223568;23;20287;-86
2022/05/26 04:40:40;;;;;;;;;;;;;;;12.34;48.90;99262.25;6250394;23;19923;-84
2022/05/26 04:43:06;;;;;;;;;;;;;;;12.53;49.73;99255.25;6249756;23;19916;-86
2022/05/26 04:45:32;;;;;;;;;;;;;;;12.85;49.05;99252.34;6249696;23;19915;-87
2022/05/26 04:47:58;;;;;;;;;;;;;;;13.12;48.88;99254.31;6249724;23;20220;-86
2022/05/26 04:50:24;;;;;;;;;;;;;;;13.15;47.82;99248.69;6198066;23;19916;-86
2022/05/26 04:52:50;;;;;;;;;;;;;;;13.28;48.05;99248.44;6247874;23;19919;-86
2022/05/26 04:55:16;;;;;;;;;;;;;;;13.57;47.34;99243.84;6197421;23;20339;-86
2022/05/26 04:57:42;;;;;;;;;;;;;;;13.52;47.20;99247.97;6220298;23;19915;-83
2022/05/26 05:00:10;;;;;;;;;;;;;;;13.47;47.25;99255.63;6247206;23;19927;-92
2022/05/26 05:02:36;;;;;;;;;;;;;;;13.74;48.03;99253.03;6249396;23;19945;-83
2022/05/26 05:05:02;;;;;;;;;;;;;;;13.98;46.84;99243.63;6219063;23;19915;-82
2022/05/26 05:07:28;;;;;;;;;;;;;;;14.08;44.53;99236.38;6219202;23;19939;-83
2022/05/26 05:09:54;;;;;;;;;;;;;;;14.09;44.61;99238.06;6219830;23;19966;-82
2022/05/26 05:12:21;;;;;;;;;;;;;;;13.85;45.14;99242.09;6172528;23;19919;-85
2022/05/26 05:14:49;;;;;;;;;;;;;;;13.62;45.51;99243.44;6221813;23;19915;-83
2022/05/26 05:17:19;;;;;;;;;;;;;;;14.01;44.28;99237.94;6219698;23;19922;-85
2022/05/26 05:19:45;;;;;;;;;;;;;;;14.03;42.31;99228.75;6246087;23;19915;-88
2022/05/26 05:22:34;;;;;;;;;;;;;;;14.04;42.90;99232.28;6195138;23;19915;-86
2022/05/26 05:25:00;;;;;;;;;;;;;;;13.96;44.14;99240.25;6199396;23;20085;-84
2022/05/26 05:27:40;;;;;;;;;;;;;;;14.45;43.76;99240.88;6219374;23;20041;-85
2022/05/26 05:30:10;;;;;;;;;;;;;;;14.76;42.94;99238.72;6245676;23;19923;-85
2022/05/26 05:32:45;;;;;;;;;;;;;;;14.94;42.47;99241.44;6218393;23;19915;-85
2022/05/26 05:35:15;;;;;;;;;;;;;;;15.09;42.77;99245.28;6220554;23;19924;-87
2022/05/26 05:37:42;;;;;;;;;;;;;;;15.39;42.65;99237.81;6219484;23;19915;-88
2022/05/26 05:40:08;;;;;;;;;;;;;;;15.65;42.26;99246.78;6219258;23;19922;-86
2022/05/26 05:42:34;;;;;;;;;;;;;;;15.86;42.09;99240.19;6221065;23;19973;-85
2022/05/26 05:45:00;;;;;;;;;;;;;;;16.17;40.50;99236.00;6195151;23;20004;-85
2022/05/26 05:47:26;;;;;;;;;;;;;;;15.88;38.15;99248.97;6195050;23;19919;-88
2022/05/26 05:49:52;;;;;;;;;;;;;;;15.38;38.07;99233.41;6195155;23;20324;-85
2022/05/26 05:52:19;;;;;;;;;;;;;;;15.15;37.85;99228.50;6194105;23;19915;-84
2022/05/26 05:54:45;;;;;;;;;;;;;;;15.01;37.89;99256.81;6245798;23;19938;-84
2022/05/26 05:57:11;;;;;;;;;;;;;;;14.44;38.17;99242.72;6218068;23;20332;-84
2022/05/26 05:59:36;;;;;;;;;;;;;;;14.57;38.14;99243.22;6194893;23;19915;-84
2022/05/26 06:02:03;;;;;;;;;;;;;;;14.54;38.31;99240.84;6219182;23;19922;-83
2022/05/26 06:04:28;;;;;;;;;;;;;;;14.58;39.26;99250.28;6193936;23;20347;-85
2022/05/26 06:06:54;;;;;;;;;;;;;;;14.56;38.95;99248.78;6218534;23;19915;-84
2022/05/26 06:09:20;;;;;;;;;;;;;;;14.95;39.57;99248.50;6169092;23;19947;-84
2022/05/26 06:11:47;;;;;;;;;;;;;;;15.51;39.21;99241.94;6167433;23;1228361;-83
2022/05/26 06:14:13;;;;;;;;;;;;;;;15.63;38.53;99240.66;6195363;23;19920;-83
2022/05/26 06:16:39;;;;;;;;;;;;;;;15.73;39.76;99233.38;6196999;23;19943;-83
2022/05/26 06:19:06;;;;;;;;;;;;;;;16.22;39.18;99228.25;6196286;23;19916;-83
2022/05/26 06:21:36;;;;;;;;;;;;;;;16.20;39.14;99241.03;6194530;23;19922;-82
2022/05/26 06:24:01;;;;;;;;;;;;;;;16.08;37.02;99247.72;6219363;23;19919;-83
2022/05/26 06:26:28;;;;;;;;;;;;;;;15.48;37.60;99234.16;6220253;23;19923;-84
2022/05/26 06:31:39;;;;;;;;;;;;;;;15.63;36.17;99232.59;6246241;23;19916;-82
2022/05/26 06:39:34;;;;;;;;;;;;;;;15.24;37.74;99224.88;6219185;23;19946;-81
2022/05/26 06:42:06;;;;;;;;;;;;;;;15.23;39.27;99220.50;6218758;23;19919;-81
2022/05/26 06:44:33;;;;;;;;;;;;;;;14.92;36.66;99221.91;6218781;23;20346;-82
2022/05/26 06:46:59;;;;;;;;;;;;;;;14.72;37.16;99211.28;6218959;23;19915;-80
2022/05/26 06:49:24;;;;;;;;;;;;;;;14.85;36.60;99220.81;6193718;23;19972;-82
2022/05/26 06:51:50;;;;;;;;;;;;;;;15.13;37.07;99219.75;6194605;23;19919;-82
2022/05/26 06:54:17;;;;;;;;;;;;;;;14.87;36.45;99211.59;6169222;23;19915;-82
2022/05/26 06:56:43;;;;;;;;;;;;;;;14.96;37.02;99209.81;6243621;23;19916;-81
2022/05/26 06:59:09;;;;;;;;;;;;;;;15.40;36.67;99204.47;6193192;23;19974;-82
2022/05/26 07:01:35;;;;;;;;;;;;;;;15.21;37.14;99208.19;6168680;23;19923;-83
2022/05/26 07:04:01;;;;;;;;;;;;;;;15.62;35.98;99203.13;6218199;23;19919;-81
2022/05/26 07:06:27;;;;;;;;;;;;;;;15.77;35.06;99205.09;6193061;23;19915;-82
2022/05/26 07:08:53;;;;;;;;;;;;;;;15.95;35.32;99206.91;6193298;22;19919;-83
2022/05/26 07:11:19;;;;;;;;;;;;;;;16.11;34.45;99190.78;6219017;23;20017;-81
2022/05/26 07:13:45;;;;;;;;;;;;;;;16.05;34.83;99193.28;6194708;23;20328;-81
2022/05/26 07:16:11;;;;;;;;;;;;;;;15.99;33.73;99194.78;6220277;23;19928;-81
2022/05/26 07:18:38;;;;;;;;;;;;;;;15.99;34.41;99194.78;6194903;23;19915;-83
2022/05/26 07:21:06;;;;;;;;;;;;;;;15.81;34.02;99191.31;6195009;23;19950;-83
2022/05/26 07:23:32;;;;;;;;;;;;;;;15.43;33.14;99191.53;6220107;23;19997;-82
2022/05/26 07:25:58;;;;;;;;;;;;;;;15.30;35.98;99193.78;6196059;23;19915;-83
2022/05/26 07:28:24;;;;;;;;;;;;;;;15.33;35.12;99198.03;6222342;23;19923;-83
2022/05/26 07:30:52;;;;;;;;;;;;;;;15.51;35.76;99196.13;6194704;22;19915;-82
2022/05/26 07:33:18;;;;;;;;;;;;;;;15.81;34.41;99196.69;6170236;23;19925;-82
2022/05/26 07:35:44;;;;;;;;;;;;;;;15.98;33.42;99209.25;6220428;23;19915;-83
2022/05/26 07:43:40;;;;;;;;;;;;;;;15.99;33.58;99184.84;6195968;23;20003;-85
2022/05/26 07:46:06;;;;;;;;;;;;;;;16.16;33.39;99191.13;6225439;23;19923;-84
2022/05/26 07:48:32;;;;;;;;;;;;;;;15.96;33.40;99184.31;6223852;23;19993;-83
2022/05/26 07:50:59;;;;;;;;;;;;;;;15.62;33.54;99193.19;6220984;23;19935;-83
2022/05/26 07:53:25;;;;;;;;;;;;;;;15.53;35.74;99199.50;6196668;23;19916;-83
2022/05/26 07:55:51;;;;;;;;;;;;;;;15.65;34.14;99192.03;6175487;23;19942;-85
2022/05/26 07:58:17;;;;;;;;;;;;;;;16.02;33.87;99178.25;6220303;23;19931;-84
2022/05/26 08:00:43;;;;;;;;;;;;;;;16.50;33.17;99176.75;6246199;23;20004;-84
2022/05/26 08:03:09;;;;;;;;;;;;;;;16.83;32.97;99172.28;6197168;23;19969;-88
2022/05/26 08:05:36;;;;;;;;;;;;;;;16.87;32.73;99178.22;6172554;23;19915;-85
2022/05/26 08:08:02;;;;;;;;;;;;;;;16.96;33.45;99166.38;6221735;23;19921;-90
2022/05/26 08:10:28;;;;;;;;;;;;;;;16.81;32.59;99170.75;6195472;23;19978;-80
2022/05/26 08:12:54;;;;;;;;;;;;;;;16.61;31.73;99178.28;6220951;23;20331;-85
2022/05/26 08:15:19;;;;;;;;;;;;;;;16.79;31.76;99173.66;6172892;23;19915;-82
2022/05/26 08:17:45;;;;;;;;;;;;;;;16.57;32.61;99168.84;6200606;23;19915;-86
2022/05/26 08:20:11;;;;;;;;;;;;;;;16.46;32.44;99167.31;6225356;23;19973;-86
2022/05/26 08:22:37;;;;;;;;;;;;;;;16.26;32.82;99175.66;6197848;23;19946;-83
2022/05/26 08:25:04;;;;;;;;;;;;;;;16.19;33.18;99173.78;6197550;23;19915;-84
2022/05/26 08:27:30;;;;;;;;;;;;;;;16.47;33.46;99166.28;6169079;23;19924;-82
2022/05/26 08:29:56;;;;;;;;;;;;;;;16.62;34.79;99163.78;6175408;23;19936;-86
2022/05/26 08:32:22;;;;;;;;;;;;;;;16.90;34.33;99159.81;6155087;23;19916;-84
2022/05/26 08:34:49;;;;;;;;;;;;;;;17.19;34.95;99156.63;6169492;23;19971;-89
2022/05/26 08:37:16;;;;;;;;;;;;;;;17.61;32.99;99160.94;6160206;23;20016;-91
2022/05/26 08:39:42;;;;;;;;;;;;;;;17.83;32.96;99154.00;6135400;23;19916;-86
2022/05/26 08:42:16;;;;;;;;;;;;;;;18.05;32.07;99155.09;6184489;23;19923;-87
2022/05/26 08:44:42;;;;;;;;;;;;;;;18.01;31.99;99151.03;6134280;23;19916;-82
2022/05/26 08:47:09;;;;;;;;;;;;;;;17.86;30.31;99152.78;6183052;23;19987;-81
2022/05/26 08:49:42;;;;;;;;;;;;;;;18.21;31.05;99151.50;6182890;23;19916;-81
2022/05/26 08:52:11;;;;;;;;;;;;;;;17.91;29.99;99155.84;6158922;23;19916;-82
2022/05/26 08:54:43;;;;;;;;;;;;;;;17.85;30.72;99141.13;6184851;23;19967;-82
2022/05/26 08:57:12;;;;;;;;;;;;;;;17.73;31.84;99148.75;6159629;23;20022;-82
2022/05/26 08:59:47;;;;;;;;;;;;;;;18.07;31.55;99171.16;6169575;23;20365;-81
2022/05/26 09:02:24;;;;;;;;;;;;;;;17.64;30.14;99154.34;6220912;23;19915;-83
2022/05/26 09:04:50;;;;;;;;;;;;;;;17.57;30.58;99146.09;6220421;23;19973;-84
2022/05/26 09:12:59;;;;;;;;;;;;;;;17.18;32.83;99141.41;6240491;23;19931;-87
2022/05/26 09:15:26;;;;;;;;;;;;;;;17.20;32.88;99139.41;6201522;23;19919;-85
2022/05/26 09:17:52;;;;;;;;;;;;;;;17.50;32.28;99133.44;6225048;23;20002;-87
2022/05/26 09:20:41;;;;;;;;;;;;;;;17.65;31.28;99145.25;6248841;23;19943;-87
2022/05/26 09:23:12;;;;;;;;;;;;;;;17.54;31.95;99170.75;6249098;23;19939;-89
2022/05/26 09:25:46;;;;;;;;;;;;;;;17.13;30.97;99149.19;6247396;23;19977;-86
2022/05/26 09:28:12;;;;;;;;;;;;;;;17.31;31.21;99149.00;6221859;23;19984;-85
2022/05/26 09:30:38;;;;;;;;;;;;;;;17.74;31.13;99141.47;6195689;23;19923;-87
2022/05/26 09:33:18;;;;;;;;;;;;;;;18.27;31.19;99134.53;6221222;23;19926;-83
2022/05/26 09:35:44;;;;;;;;;;;;;;;19.06;30.22;99124.38;6246904;23;19915;-83
2022/05/26 09:38:15;;;;;;;;;;;;;;;19.59;30.50;99146.06;6196282;23;19922;-85
2022/05/26 09:40:41;;;;;;;;;;;;;;;19.21;29.17;99145.25;6196990;23;19920;-83
2022/05/26 09:43:26;;;;;;;;;;;;;;;19.01;29.06;99134.91;6196363;23;19922;-83
2022/05/26 09:45:57;;;;;;;;;;;;;;;18.95;29.44;99148.34;6196215;23;19922;-82
2022/05/26 09:48:34;;;;;;;;;;;;;;;18.82;29.03;99148.94;6195803;23;19922;-82
2022/05/26 09:51:06;;;;;;;;;;;;;;;18.73;28.50;99144.59;6171451;23;19915;-81
2022/05/26 09:53:34;;;;;;;;;;;;;;;18.73;27.85;99150.00;6195732;23;19916;-83
2022/05/26 09:56:00;;;;;;;;;;;;;;;19.40;27.80;99139.31;6195837;23;19945;-81
2022/05/26 09:58:28;;;;;;;;;;;;;;;20.23;27.69;99131.94;6246080;23;20323;-83
2022/05/26 10:00:56;;;;;;;;;;;;;;;21.08;27.01;99132.03;6196675;23;19923;-83
2022/05/26 10:03:33;;;;;;;;;;;;;;;21.57;26.83;99130.38;6222591;23;19922;-82
2022/05/26 10:06:01;;;;;;;;;;;;;;;21.29;25.29;99138.50;6221259;23;19916;-84
2022/05/26 10:08:35;;;;;;;;;;;;;;;21.49;25.61;99125.94;6195955;23;20005;-84
2022/05/26 10:11:11;;;;;;;;;;;;;;;21.31;26.00;99136.41;6196068;23;19942;-83
2022/05/26 10:13:37;;;;;;;;;;;;;;;21.29;26.23;99131.19;6198272;23;20377;-83
2022/05/26 10:16:22;;;;;;;;;;;;;;;21.08;26.25;99133.94;6174297;23;19919;-84
2022/05/26 10:18:59;;;;;;;;;;;;;;;22.00;25.62;99127.47;6222862;23;19922;-85
2022/05/26 10:21:40;;;;;;;;;;;;;;;22.25;25.04;99134.13;6220813;23;19922;-85
2022/05/26 10:24:05;;;;;;;;;;;;;;;23.06;24.25;99113.41;6170831;23;20336;-82
2022/05/26 10:26:46;;;;;;;;;;;;;;;23.30;23.77;99123.66;6170127;23;19951;-81
2022/05/26 10:29:20;;;;;;;;;;;;;;;23.49;24.17;99120.09;6196052;23;19916;-82
2022/05/26 10:31:49;;;;;;;;;;;;;;;23.78;22.90;99134.34;6195589;23;20235;-80
2022/05/26 10:34:15;;;;;;;;;;;;;;;23.84;22.34;99138.94;6170678;23;19959;-86
2022/05/26 10:36:51;;;;;;;;;;;;;;;24.08;22.24;99129.22;6170686;23;19974;-82
2022/05/26 10:39:24;;;;;;;;;;;;;;;24.66;21.58;99126.44;6195409;23;19955;-82
2022/05/26 10:41:51;;;;;;;;;;;;;;;24.29;21.51;99130.81;6170781;23;20405;-82
2022/05/26 10:44:23;;;;;;;;;;;;;;;24.43;21.73;99131.63;6195709;23;19915;-82
2022/05/26 10:46:57;;;;;;;;;;;;;;;24.32;21.86;99135.84;6171534;23;19916;-80
2022/05/26 10:49:37;;;;;;;;;;;;;;;24.57;20.81;99133.25;6196794;23;19938;-81
2022/05/26 10:52:05;;;;;;;;;;;;;;;24.49;21.42;99129.94;6220688;23;20002;-82
2022/05/26 10:54:37;;;;;;;;;;;;;;;25.35;20.40;99123.88;6170942;23;19943;-83
2022/05/26 10:57:10;;;;;;;;;;;;;;;24.58;20.89;99129.44;6220446;23;20384;-81
2022/05/26 10:59:45;;;;;;;;;;;;;;;24.69;21.17;99125.19;6171420;23;19923;-83
2022/05/26 11:02:32;;;;;;;;;;;;;;;25.17;20.39;99125.50;6195979;23;20010;-82
2022/05/26 11:05:01;;;;;;;;;;;;;;;24.39;21.98;99125.75;6171068;23;19951;-81
2022/05/26 11:07:32;;;;;;;;;;;;;;;24.50;22.06;99132.44;6196309;23;19915;-81
2022/05/26 11:10:02;;;;;;;;;;;;;;;24.36;21.36;99123.44;6195226;23;19915;-81
2022/05/26 11:12:29;;;;;;;;;;;;;;;24.51;21.46;99122.34;6248028;23;19915;-84
2022/05/26 11:17:48;;;;;;;;;;;;;;;25.87;19.73;99127.19;6220277;23;19919;-82
2022/05/26 11:20:18;;;;;;;;;;;;;;;25.65;19.48;99124.88;6219773;23;19915;-81
2022/05/26 11:22:46;;;;;;;;;;;;;;;26.60;19.72;99132.66;6246191;23;20334;-83
2022/05/26 11:25:20;;;;;;;;;;;;;;;26.94;19.15;99113.00;6247723;23;20339;-82
2022/05/26 11:27:52;;;;;;;;;;;;;;;27.81;18.87;99118.72;6195977;23;20351;-80
2022/05/26 11:36:10;;;;;;;;;;;;;;;26.47;18.74;99116.38;6219961;23;19915;-82
2022/05/26 11:38:46;;;;;;;;;;;;;;;26.41;18.88;99117.28;6245541;23;19916;-82
2022/05/26 11:41:21;;;;;;;;;;;;;;;26.95;18.40;99122.88;6194524;23;20255;-83
2022/05/26 11:44:00;;;;;;;;;;;;;;;26.25;18.25;99123.38;6218770;23;20232;-82
2022/05/26 11:46:44;;;;;;;;;;;;;;;25.99;19.14;99117.19;6219867;23;19915;-82
2022/05/26 11:49:29;;;;;;;;;;;;;;;26.46;19.29;99127.59;6194966;23;19953;-80
2022/05/26 11:51:54;;;;;;;;;;;;;;;26.87;19.54;99116.66;6220017;23;20323;-81
2022/05/26 11:54:39;;;;;;;;;;;;;;;27.93;18.28;99118.72;6169804;23;19916;-82
2022/05/26 11:57:23;;;;;;;;;;;;;;;29.26;17.33;99112.00;6219784;23;19966;-81
2022/05/26 11:59:50;;;;;;;;;;;;;;;28.60;16.62;99120.94;6195117;23;19915;-83
2022/05/26 12:02:26;;;;;;;;;;;;;;;28.84;16.50;99114.22;6246399;23;20335;-82
2022/05/26 12:04:53;;;;;;;;;;;;;;;28.97;16.76;99110.34;6172298;23;19915;-84
2022/05/26 12:07:19;;;;;;;;;;;;;;;29.83;16.80;99112.88;6173124;23;19922;-85
2022/05/26 12:09:48;;;;;;;;;;;;;;;29.30;16.38;99104.06;6194278;23;19915;-81
2022/05/26 12:12:13;;;;;;;;;;;;;;;28.55;17.19;99099.69;6168819;23;19950;-80
2022/05/26 12:14:57;;;;;;;;;;;;;;;28.08;17.08;99105.28;6219584;23;19966;-84
2022/05/26 12:17:23;;;;;;;;;;;;;;;27.98;17.40;99111.44;6218801;23;19916;-86
2022/05/26 12:19:49;;;;;;;;;;;;;;;28.31;17.05;99105.22;6219122;23;19970;-82
2022/05/26 12:22:22;;;;;;;;;;;;;;;29.04;16.71;99097.31;6219267;23;19961;-85
2022/05/26 12:25:00;;;;;;;;;;;;;;;29.46;16.00;99096.88;6194838;23;19919;-80
2022/05/26 12:27:44;;;;;;;;;;;;;;;30.18;16.21;99096.84;6194744;23;19922;-87
2022/05/26 12:30:10;;;;;;;;;;;;;;;28.41;16.98;99103.81;6169564;23;19915;-80
2022/05/26 12:32:37;;;;;;;;;;;;;;;27.65;17.20;99109.28;6245546;22;20010;-81
2022/05/26 12:35:23;;;;;;;;;;;;;;;28.24;16.49;99104.53;6219247;23;19919;-80
2022/05/26 12:37:58;;;;;;;;;;;;;;;27.92;16.69;99106.06;6169138;23;19915;-82
2022/05/26 12:40:34;;;;;;;;;;;;;;;28.70;16.22;99097.22;6245763;23;19957;-80
2022/05/26 12:43:21;;;;;;;;;;;;;;;30.18;15.61;99102.34;6169902;23;19915;-82
2022/05/26 12:45:56;;;;;;;;;;;;;;;31.43;14.61;99095.91;6170391;23;19938;-79
2022/05/26 12:48:25;;;;;;;;;;;;;;;32.10;14.07;99099.94;6195258;23;19915;-88
2022/05/26 12:50:51;;;;;;;;;;;;;;;30.79;14.65;99095.88;6195101;23;19920;-80
2022/05/26 12:53:28;;;;;;;;;;;;;;;31.36;14.40;99100.81;6218529;23;19915;-86
2022/05/26 12:56:00;;;;;;;;;;;;;;;29.47;15.47;99106.81;6218274;23;19915;-82
2022/05/26 12:58:25;;;;;;;;;;;;;;;29.95;15.54;99102.56;6193230;23;19966;-83
2022/05/26 13:00:54;;;;;;;;;;;;;;;30.58;15.21;99094.78;6169436;23;19920;-81
2022/05/26 13:03:28;;;;;;;;;;;;;;;31.50;14.78;99093.75;6218564;23;19969;-88
2022/05/26 13:05:58;;;;;;;;;;;;;;;30.99;14.57;99095.22;6194065;23;19920;-82
2022/05/26 13:08:25;;;;;;;;;;;;;;;28.98;16.15;99115.63;6194523;23;19915;-82
2022/05/26 13:10:53;;;;;;;;;;;;;;;29.17;16.95;99099.72;6219361;23;19919;-85
2022/05/26 13:13:34;;;;;;;;;;;;;;;30.55;15.46;99096.16;6245813;23;20354;-82
2022/05/26 13:16:18;;;;;;;;;;;;;;;31.16;14.34;99101.47;6219229;23;20009;-81
2022/05/26 13:18:44;;;;;;;;;;;;;;;30.13;14.96;99099.50;6218901;23;19922;-82
2022/05/26 13:21:17;;;;;;;;;;;;;;;30.05;14.91;99097.19;6193938;23;20278;-81